sensor_id;sensor_type;location;lat;lon;timestamp;P1;durP1;ratioP1;P2;durP2;ratioP2
31368;SDS011;18004;48.416;10.066;2023-09-08T00:01:33;2.88;;;2.53;;
31368;SDS011;18004;48.416;10.066;2023-09-08T00:03:58;6.18;;;3.55;;
31368;SDS011;18004;48.416;10.066;2023-09-08T00:06:24;3.92;;;2.63;;
31368;SDS011;18004;48.416;10.066;2023-09-08T00:08:50;4.22;;;2.97;;
31368;SDS011;18004;48.416;10.066;2023-09-08T00:11:16;4.18;;;3.13;;
31368;SDS011;18004;48.416;10.066;2023-09-08T00:13:42;3.70;;;3.03;;
31368;SDS011;18004;48.416;10.066;2023-09-08T00:16:08;5.32;;;3.30;;
31368;SDS011;18004;48.416;10.066;2023-09-08T00:18:35;4.72;;;3.20;;
31368;SDS011;18004;48.416;10.066;2023-09-08T00:21:01;7.15;;;3.20;;
31368;SDS011;18004;48.416;10.066;2023-09-08T00:23:26;4.85;;;2.83;;
31368;SDS011;18004;48.416;10.066;2023-09-08T00:25:53;6.25;;;2.40;;
31368;SDS011;18004;48.416;10.066;2023-09-08T00:28:19;4.03;;;2.50;;
31368;SDS011;18004;48.416;10.066;2023-09-08T00:30:45;4.50;;;3.10;;
31368;SDS011;18004;48.416;10.066;2023-09-08T00:33:10;4.43;;;2.78;;
31368;SDS011;18004;48.416;10.066;2023-09-08T00:35:38;4.40;;;2.83;;
31368;SDS011;18004;48.416;10.066;2023-09-08T00:38:05;3.60;;;3.05;;
31368;SDS011;18004;48.416;10.066;2023-09-08T00:40:31;4.85;;;2.92;;
31368;SDS011;18004;48.416;10.066;2023-09-08T00:42:57;10.48;;;3.33;;
31368;SDS011;18004;48.416;10.066;2023-09-08T00:45:23;9.90;;;3.42;;
31368;SDS011;18004;48.416;10.066;2023-09-08T00:47:51;3.33;;;2.70;;
31368;SDS011;18004;48.416;10.066;2023-09-08T00:50:17;4.90;;;3.08;;
31368;SDS011;18004;48.416;10.066;2023-09-08T00:52:43;4.00;;;2.78;;
31368;SDS011;18004;48.416;10.066;2023-09-08T00:55:08;3.85;;;2.53;;
31368;SDS011;18004;48.416;10.066;2023-09-08T00:57:34;4.18;;;2.83;;
31368;SDS011;18004;48.416;10.066;2023-09-08T01:00:00;4.50;;;2.83;;
31368;SDS011;18004;48.416;10.066;2023-09-08T01:02:26;3.83;;;2.33;;
31368;SDS011;18004;48.416;10.066;2023-09-08T01:04:52;3.95;;;2.80;;
31368;SDS011;18004;48.416;10.066;2023-09-08T01:07:18;10.15;;;3.05;;
31368;SDS011;18004;48.416;10.066;2023-09-08T01:09:45;3.15;;;2.47;;
31368;SDS011;18004;48.416;10.066;2023-09-08T01:12:12;3.72;;;2.67;;
31368;SDS011;18004;48.416;10.066;2023-09-08T01:14:38;4.45;;;2.33;;
31368;SDS011;18004;48.416;10.066;2023-09-08T01:17:03;3.45;;;2.65;;
31368;SDS011;18004;48.416;10.066;2023-09-08T01:19:29;3.70;;;2.80;;
31368;SDS011;18004;48.416;10.066;2023-09-08T01:22:06;4.45;;;2.60;;
31368;SDS011;18004;48.416;10.066;2023-09-08T01:27:37;5.05;;;3.10;;
31368;SDS011;18004;48.416;10.066;2023-09-08T01:30:05;2.92;;;2.42;;
31368;SDS011;18004;48.416;10.066;2023-09-08T01:32:32;8.98;;;3.38;;
31368;SDS011;18004;48.416;10.066;2023-09-08T01:34:59;3.13;;;2.72;;
31368;SDS011;18004;48.416;10.066;2023-09-08T01:37:25;4.25;;;2.90;;
31368;SDS011;18004;48.416;10.066;2023-09-08T01:39:51;3.70;;;3.30;;
31368;SDS011;18004;48.416;10.066;2023-09-08T01:42:17;6.20;;;3.33;;
31368;SDS011;18004;48.416;10.066;2023-09-08T01:44:43;4.88;;;2.97;;
31368;SDS011;18004;48.416;10.066;2023-09-08T01:47:08;3.75;;;2.97;;
31368;SDS011;18004;48.416;10.066;2023-09-08T01:49:34;6.80;;;3.20;;
31368;SDS011;18004;48.416;10.066;2023-09-08T01:52:00;2.60;;;2.38;;
31368;SDS011;18004;48.416;10.066;2023-09-08T01:54:25;3.20;;;2.78;;
31368;SDS011;18004;48.416;10.066;2023-09-08T01:56:51;3.90;;;3.03;;
31368;SDS011;18004;48.416;10.066;2023-09-08T01:59:17;4.45;;;2.83;;
31368;SDS011;18004;48.416;10.066;2023-09-08T02:01:43;5.07;;;3.17;;
31368;SDS011;18004;48.416;10.066;2023-09-08T02:04:08;4.80;;;2.97;;
31368;SDS011;18004;48.416;10.066;2023-09-08T02:06:34;4.40;;;3.35;;
31368;SDS011;18004;48.416;10.066;2023-09-08T02:09:00;5.50;;;3.00;;
31368;SDS011;18004;48.416;10.066;2023-09-08T02:11:25;9.15;;;3.42;;
31368;SDS011;18004;48.416;10.066;2023-09-08T02:13:51;5.25;;;3.58;;
31368;SDS011;18004;48.416;10.066;2023-09-08T02:16:17;5.53;;;3.33;;
31368;SDS011;18004;48.416;10.066;2023-09-08T02:18:46;8.95;;;3.33;;
31368;SDS011;18004;48.416;10.066;2023-09-08T02:21:12;7.03;;;3.03;;
31368;SDS011;18004;48.416;10.066;2023-09-08T02:23:37;5.63;;;2.97;;
31368;SDS011;18004;48.416;10.066;2023-09-08T02:26:03;6.05;;;3.30;;
31368;SDS011;18004;48.416;10.066;2023-09-08T02:28:29;4.95;;;3.22;;
31368;SDS011;18004;48.416;10.066;2023-09-08T02:30:55;5.30;;;3.53;;
31368;SDS011;18004;48.416;10.066;2023-09-08T02:33:20;5.35;;;3.13;;
31368;SDS011;18004;48.416;10.066;2023-09-08T02:35:46;5.53;;;3.17;;
31368;SDS011;18004;48.416;10.066;2023-09-08T02:38:12;5.10;;;3.13;;
31368;SDS011;18004;48.416;10.066;2023-09-08T02:40:38;6.80;;;3.33;;
31368;SDS011;18004;48.416;10.066;2023-09-08T02:48:07;5.13;;;3.30;;
31368;SDS011;18004;48.416;10.066;2023-09-08T02:50:32;3.60;;;2.58;;
31368;SDS011;18004;48.416;10.066;2023-09-08T02:52:58;4.15;;;2.83;;
31368;SDS011;18004;48.416;10.066;2023-09-08T02:55:24;4.47;;;3.13;;
31368;SDS011;18004;48.416;10.066;2023-09-08T02:57:49;6.75;;;3.15;;
31368;SDS011;18004;48.416;10.066;2023-09-08T03:00:15;7.00;;;3.25;;
31368;SDS011;18004;48.416;10.066;2023-09-08T03:02:41;4.00;;;3.03;;
31368;SDS011;18004;48.416;10.066;2023-09-08T03:05:07;3.55;;;2.92;;
31368;SDS011;18004;48.416;10.066;2023-09-08T03:07:33;4.00;;;3.33;;
31368;SDS011;18004;48.416;10.066;2023-09-08T03:10:01;3.63;;;2.45;;
31368;SDS011;18004;48.416;10.066;2023-09-08T03:12:28;6.95;;;3.65;;
31368;SDS011;18004;48.416;10.066;2023-09-08T03:14:55;6.18;;;3.28;;
31368;SDS011;18004;48.416;10.066;2023-09-08T03:17:21;3.22;;;2.92;;
31368;SDS011;18004;48.416;10.066;2023-09-08T03:19:46;6.13;;;3.25;;
31368;SDS011;18004;48.416;10.066;2023-09-08T03:22:12;5.53;;;2.80;;
31368;SDS011;18004;48.416;10.066;2023-09-08T03:24:38;4.68;;;2.70;;
31368;SDS011;18004;48.416;10.066;2023-09-08T03:27:03;5.50;;;2.97;;
31368;SDS011;18004;48.416;10.066;2023-09-08T03:29:29;5.50;;;2.63;;
31368;SDS011;18004;48.416;10.066;2023-09-08T03:31:55;6.72;;;3.20;;
31368;SDS011;18004;48.416;10.066;2023-09-08T03:34:21;4.55;;;2.90;;
31368;SDS011;18004;48.416;10.066;2023-09-08T03:36:48;4.85;;;3.10;;
31368;SDS011;18004;48.416;10.066;2023-09-08T03:39:15;4.22;;;2.92;;
31368;SDS011;18004;48.416;10.066;2023-09-08T03:41:40;4.80;;;2.92;;
31368;SDS011;18004;48.416;10.066;2023-09-08T03:44:06;4.47;;;2.97;;
31368;SDS011;18004;48.416;10.066;2023-09-08T03:46:32;11.77;;;4.05;;
31368;SDS011;18004;48.416;10.066;2023-09-08T03:48:58;5.68;;;3.63;;
31368;SDS011;18004;48.416;10.066;2023-09-08T03:51:26;5.30;;;3.40;;
31368;SDS011;18004;48.416;10.066;2023-09-08T03:53:53;4.28;;;3.58;;
31368;SDS011;18004;48.416;10.066;2023-09-08T03:56:19;4.80;;;3.35;;
31368;SDS011;18004;48.416;10.066;2023-09-08T03:58:45;5.60;;;3.50;;
31368;SDS011;18004;48.416;10.066;2023-09-08T04:01:12;4.15;;;3.40;;
31368;SDS011;18004;48.416;10.066;2023-09-08T04:03:38;5.05;;;3.40;;
31368;SDS011;18004;48.416;10.066;2023-09-08T04:06:03;8.10;;;3.95;;
31368;SDS011;18004;48.416;10.066;2023-09-08T04:08:29;7.78;;;4.03;;
31368;SDS011;18004;48.416;10.066;2023-09-08T04:10:55;5.32;;;3.78;;
31368;SDS011;18004;48.416;10.066;2023-09-08T04:13:21;6.30;;;3.40;;
31368;SDS011;18004;48.416;10.066;2023-09-08T04:15:46;3.35;;;2.80;;
31368;SDS011;18004;48.416;10.066;2023-09-08T04:18:12;6.85;;;3.17;;
31368;SDS011;18004;48.416;10.066;2023-09-08T04:20:39;6.05;;;3.55;;
31368;SDS011;18004;48.416;10.066;2023-09-08T04:23:04;5.13;;;3.15;;
31368;SDS011;18004;48.416;10.066;2023-09-08T04:25:30;5.13;;;3.75;;
31368;SDS011;18004;48.416;10.066;2023-09-08T04:27:56;4.63;;;3.20;;
31368;SDS011;18004;48.416;10.066;2023-09-08T04:30:22;3.20;;;2.88;;
31368;SDS011;18004;48.416;10.066;2023-09-08T04:32:47;5.10;;;2.97;;
31368;SDS011;18004;48.416;10.066;2023-09-08T04:35:13;5.07;;;3.10;;
31368;SDS011;18004;48.416;10.066;2023-09-08T04:37:39;3.95;;;3.20;;
31368;SDS011;18004;48.416;10.066;2023-09-08T04:40:05;3.28;;;2.85;;
31368;SDS011;18004;48.416;10.066;2023-09-08T04:42:32;4.65;;;3.17;;
31368;SDS011;18004;48.416;10.066;2023-09-08T04:44:58;6.47;;;3.00;;
31368;SDS011;18004;48.416;10.066;2023-09-08T04:47:24;5.80;;;3.70;;
31368;SDS011;18004;48.416;10.066;2023-09-08T04:49:49;7.72;;;2.92;;
31368;SDS011;18004;48.416;10.066;2023-09-08T04:52:15;3.70;;;2.75;;
31368;SDS011;18004;48.416;10.066;2023-09-08T04:54:41;3.92;;;2.80;;
31368;SDS011;18004;48.416;10.066;2023-09-08T04:57:07;3.90;;;2.50;;
31368;SDS011;18004;48.416;10.066;2023-09-08T04:59:32;3.58;;;2.63;;
31368;SDS011;18004;48.416;10.066;2023-09-08T05:01:58;6.40;;;3.42;;
31368;SDS011;18004;48.416;10.066;2023-09-08T05:04:24;10.48;;;3.67;;
31368;SDS011;18004;48.416;10.066;2023-09-08T05:06:50;3.88;;;2.90;;
31368;SDS011;18004;48.416;10.066;2023-09-08T05:09:16;6.57;;;3.92;;
31368;SDS011;18004;48.416;10.066;2023-09-08T05:11:41;3.90;;;2.88;;
31368;SDS011;18004;48.416;10.066;2023-09-08T05:14:07;5.38;;;3.50;;
31368;SDS011;18004;48.416;10.066;2023-09-08T05:16:33;5.40;;;3.63;;
31368;SDS011;18004;48.416;10.066;2023-09-08T05:19:04;6.25;;;3.67;;
31368;SDS011;18004;48.416;10.066;2023-09-08T05:21:31;4.07;;;3.17;;
31368;SDS011;18004;48.416;10.066;2023-09-08T05:23:57;8.35;;;3.47;;
31368;SDS011;18004;48.416;10.066;2023-09-08T05:26:23;5.05;;;3.58;;
31368;SDS011;18004;48.416;10.066;2023-09-08T05:28:49;10.50;;;3.38;;
31368;SDS011;18004;48.416;10.066;2023-09-08T05:31:14;9.07;;;3.95;;
31368;SDS011;18004;48.416;10.066;2023-09-08T05:33:40;4.20;;;3.35;;
31368;SDS011;18004;48.416;10.066;2023-09-08T05:36:06;5.03;;;3.72;;
31368;SDS011;18004;48.416;10.066;2023-09-08T05:38:32;5.88;;;3.80;;
31368;SDS011;18004;48.416;10.066;2023-09-08T05:40:57;4.05;;;3.20;;
31368;SDS011;18004;48.416;10.066;2023-09-08T05:43:24;4.65;;;3.22;;
31368;SDS011;18004;48.416;10.066;2023-09-08T05:45:50;6.47;;;4.55;;
31368;SDS011;18004;48.416;10.066;2023-09-08T05:48:16;5.43;;;3.90;;
31368;SDS011;18004;48.416;10.066;2023-09-08T05:50:42;5.40;;;3.67;;
31368;SDS011;18004;48.416;10.066;2023-09-08T05:53:08;5.97;;;4.00;;
31368;SDS011;18004;48.416;10.066;2023-09-08T05:55:33;6.43;;;3.95;;
31368;SDS011;18004;48.416;10.066;2023-09-08T05:57:59;5.97;;;3.92;;
31368;SDS011;18004;48.416;10.066;2023-09-08T06:00:25;5.85;;;3.97;;
31368;SDS011;18004;48.416;10.066;2023-09-08T06:02:51;4.90;;;3.45;;
31368;SDS011;18004;48.416;10.066;2023-09-08T06:05:17;5.53;;;4.03;;
31368;SDS011;18004;48.416;10.066;2023-09-08T06:07:43;7.65;;;4.95;;
31368;SDS011;18004;48.416;10.066;2023-09-08T06:10:09;7.28;;;4.97;;
31368;SDS011;18004;48.416;10.066;2023-09-08T06:12:35;4.97;;;4.28;;
31368;SDS011;18004;48.416;10.066;2023-09-08T06:15:03;7.00;;;4.80;;
31368;SDS011;18004;48.416;10.066;2023-09-08T06:17:29;9.70;;;4.93;;
31368;SDS011;18004;48.416;10.066;2023-09-08T06:19:55;7.53;;;4.47;;
31368;SDS011;18004;48.416;10.066;2023-09-08T06:22:21;8.98;;;4.28;;
31368;SDS011;18004;48.416;10.066;2023-09-08T06:24:47;6.75;;;5.13;;
31368;SDS011;18004;48.416;10.066;2023-09-08T06:27:16;8.43;;;5.40;;
31368;SDS011;18004;48.416;10.066;2023-09-08T06:29:42;8.80;;;5.20;;
31368;SDS011;18004;48.416;10.066;2023-09-08T06:32:09;8.50;;;5.13;;
31368;SDS011;18004;48.416;10.066;2023-09-08T06:34:35;9.10;;;5.38;;
31368;SDS011;18004;48.416;10.066;2023-09-08T06:37:01;9.27;;;4.97;;
31368;SDS011;18004;48.416;10.066;2023-09-08T06:39:27;7.68;;;5.22;;
31368;SDS011;18004;48.416;10.066;2023-09-08T06:41:53;5.68;;;4.45;;
31368;SDS011;18004;48.416;10.066;2023-09-08T06:44:22;8.80;;;5.13;;
31368;SDS011;18004;48.416;10.066;2023-09-08T06:46:48;8.93;;;5.30;;
31368;SDS011;18004;48.416;10.066;2023-09-08T06:49:14;11.38;;;5.78;;
31368;SDS011;18004;48.416;10.066;2023-09-08T06:51:39;6.93;;;5.75;;
31368;SDS011;18004;48.416;10.066;2023-09-08T06:54:05;6.50;;;5.68;;
31368;SDS011;18004;48.416;10.066;2023-09-08T06:56:31;7.45;;;5.53;;
31368;SDS011;18004;48.416;10.066;2023-09-08T06:58:56;9.43;;;5.60;;
31368;SDS011;18004;48.416;10.066;2023-09-08T07:01:25;6.35;;;4.25;;
31368;SDS011;18004;48.416;10.066;2023-09-08T07:03:51;6.95;;;5.28;;
31368;SDS011;18004;48.416;10.066;2023-09-08T07:06:17;9.38;;;5.28;;
31368;SDS011;18004;48.416;10.066;2023-09-08T07:08:42;7.50;;;5.75;;
31368;SDS011;18004;48.416;10.066;2023-09-08T07:11:09;6.50;;;5.22;;
31368;SDS011;18004;48.416;10.066;2023-09-08T07:13:35;10.68;;;6.60;;
31368;SDS011;18004;48.416;10.066;2023-09-08T07:16:04;8.25;;;5.03;;
31368;SDS011;18004;48.416;10.066;2023-09-08T07:18:30;9.02;;;5.50;;
31368;SDS011;18004;48.416;10.066;2023-09-08T07:21:00;7.53;;;5.03;;
31368;SDS011;18004;48.416;10.066;2023-09-08T07:23:25;5.50;;;4.78;;
31368;SDS011;18004;48.416;10.066;2023-09-08T07:25:51;8.27;;;4.60;;
31368;SDS011;18004;48.416;10.066;2023-09-08T07:28:17;9.98;;;5.43;;
31368;SDS011;18004;48.416;10.066;2023-09-08T07:30:43;8.38;;;5.25;;
31368;SDS011;18004;48.416;10.066;2023-09-08T07:33:08;7.38;;;4.57;;
31368;SDS011;18004;48.416;10.066;2023-09-08T07:35:37;4.88;;;4.38;;
31368;SDS011;18004;48.416;10.066;2023-09-08T07:38:04;5.70;;;4.05;;
31368;SDS011;18004;48.416;10.066;2023-09-08T07:40:31;7.95;;;4.15;;
31368;SDS011;18004;48.416;10.066;2023-09-08T07:42:58;12.73;;;4.35;;
31368;SDS011;18004;48.416;10.066;2023-09-08T07:45:24;6.75;;;4.60;;
31368;SDS011;18004;48.416;10.066;2023-09-08T07:47:49;9.00;;;4.70;;
31368;SDS011;18004;48.416;10.066;2023-09-08T07:50:15;5.07;;;4.05;;
31368;SDS011;18004;48.416;10.066;2023-09-08T07:52:46;7.50;;;5.00;;
31368;SDS011;18004;48.416;10.066;2023-09-08T07:55:13;13.13;;;4.43;;
31368;SDS011;18004;48.416;10.066;2023-09-08T07:57:41;7.40;;;5.05;;
31368;SDS011;18004;48.416;10.066;2023-09-08T08:00:07;7.47;;;4.25;;
31368;SDS011;18004;48.416;10.066;2023-09-08T08:02:36;7.60;;;4.53;;
31368;SDS011;18004;48.416;10.066;2023-09-08T08:05:02;5.75;;;4.50;;
31368;SDS011;18004;48.416;10.066;2023-09-08T08:07:28;5.15;;;4.25;;
31368;SDS011;18004;48.416;10.066;2023-09-08T08:09:55;5.68;;;4.20;;
31368;SDS011;18004;48.416;10.066;2023-09-08T08:12:20;5.28;;;4.22;;
31368;SDS011;18004;48.416;10.066;2023-09-08T08:14:46;17.70;;;4.50;;
31368;SDS011;18004;48.416;10.066;2023-09-08T08:17:12;5.38;;;4.15;;
31368;SDS011;18004;48.416;10.066;2023-09-08T08:19:38;4.03;;;3.63;;
31368;SDS011;18004;48.416;10.066;2023-09-08T08:22:03;9.10;;;4.18;;
31368;SDS011;18004;48.416;10.066;2023-09-08T08:24:29;7.63;;;4.22;;
31368;SDS011;18004;48.416;10.066;2023-09-08T08:26:55;6.18;;;4.10;;
31368;SDS011;18004;48.416;10.066;2023-09-08T08:29:21;5.80;;;3.90;;
31368;SDS011;18004;48.416;10.066;2023-09-08T08:31:46;6.50;;;4.53;;
31368;SDS011;18004;48.416;10.066;2023-09-08T08:34:12;3.72;;;3.30;;
31368;SDS011;18004;48.416;10.066;2023-09-08T08:36:38;5.50;;;3.88;;
31368;SDS011;18004;48.416;10.066;2023-09-08T08:39:03;7.22;;;4.30;;
31368;SDS011;18004;48.416;10.066;2023-09-08T08:41:30;4.20;;;3.53;;
31368;SDS011;18004;48.416;10.066;2023-09-08T08:43:56;7.82;;;3.78;;
31368;SDS011;18004;48.416;10.066;2023-09-08T08:46:23;5.85;;;3.28;;
31368;SDS011;18004;48.416;10.066;2023-09-08T08:48:51;5.50;;;4.32;;
31368;SDS011;18004;48.416;10.066;2023-09-08T08:51:19;5.32;;;3.90;;
31368;SDS011;18004;48.416;10.066;2023-09-08T08:53:48;6.95;;;3.97;;
31368;SDS011;18004;48.416;10.066;2023-09-08T08:56:14;8.25;;;3.90;;
31368;SDS011;18004;48.416;10.066;2023-09-08T08:58:41;8.85;;;4.05;;
31368;SDS011;18004;48.416;10.066;2023-09-08T09:01:07;7.03;;;3.85;;
31368;SDS011;18004;48.416;10.066;2023-09-08T09:03:36;6.97;;;4.05;;
31368;SDS011;18004;48.416;10.066;2023-09-08T09:06:03;5.10;;;3.78;;
31368;SDS011;18004;48.416;10.066;2023-09-08T09:08:29;6.30;;;3.97;;
31368;SDS011;18004;48.416;10.066;2023-09-08T09:10:57;5.13;;;3.30;;
31368;SDS011;18004;48.416;10.066;2023-09-08T09:13:25;3.47;;;3.05;;
31368;SDS011;18004;48.416;10.066;2023-09-08T09:15:51;10.32;;;4.22;;
31368;SDS011;18004;48.416;10.066;2023-09-08T09:18:22;3.60;;;3.30;;
31368;SDS011;18004;48.416;10.066;2023-09-08T09:20:54;3.15;;;2.85;;
31368;SDS011;18004;48.416;10.066;2023-09-08T09:23:30;3.65;;;2.80;;
31368;SDS011;18004;48.416;10.066;2023-09-08T09:26:00;6.18;;;3.28;;
31368;SDS011;18004;48.416;10.066;2023-09-08T09:28:29;6.30;;;4.30;;
31368;SDS011;18004;48.416;10.066;2023-09-08T09:30:55;5.30;;;3.55;;
31368;SDS011;18004;48.416;10.066;2023-09-08T09:33:21;5.65;;;3.33;;
31368;SDS011;18004;48.416;10.066;2023-09-08T09:35:51;8.35;;;3.08;;
31368;SDS011;18004;48.416;10.066;2023-09-08T09:38:19;3.00;;;2.35;;
31368;SDS011;18004;48.416;10.066;2023-09-08T09:40:45;8.18;;;3.08;;
31368;SDS011;18004;48.416;10.066;2023-09-08T09:43:13;7.50;;;3.03;;
31368;SDS011;18004;48.416;10.066;2023-09-08T09:45:40;2.78;;;2.33;;
31368;SDS011;18004;48.416;10.066;2023-09-08T09:48:08;4.32;;;3.20;;
31368;SDS011;18004;48.416;10.066;2023-09-08T09:50:35;5.80;;;3.20;;
31368;SDS011;18004;48.416;10.066;2023-09-08T09:53:11;3.25;;;2.92;;
31368;SDS011;18004;48.416;10.066;2023-09-08T09:55:38;4.65;;;2.67;;
31368;SDS011;18004;48.416;10.066;2023-09-08T09:58:06;4.90;;;2.30;;
31368;SDS011;18004;48.416;10.066;2023-09-08T10:00:33;3.00;;;2.25;;
31368;SDS011;18004;48.416;10.066;2023-09-08T10:03:00;3.47;;;2.63;;
31368;SDS011;18004;48.416;10.066;2023-09-08T10:05:27;3.72;;;2.70;;
31368;SDS011;18004;48.416;10.066;2023-09-08T10:07:53;7.60;;;2.65;;
31368;SDS011;18004;48.416;10.066;2023-09-08T10:10:19;6.35;;;2.40;;
31368;SDS011;18004;48.416;10.066;2023-09-08T10:12:52;4.97;;;2.42;;
31368;SDS011;18004;48.416;10.066;2023-09-08T10:15:22;2.35;;;2.13;;
31368;SDS011;18004;48.416;10.066;2023-09-08T10:17:52;3.70;;;2.75;;
31368;SDS011;18004;48.416;10.066;2023-09-08T10:20:22;3.33;;;2.10;;
31368;SDS011;18004;48.416;10.066;2023-09-08T10:22:56;2.85;;;1.80;;
31368;SDS011;18004;48.416;10.066;2023-09-08T10:25:47;2.95;;;2.15;;
31368;SDS011;18004;48.416;10.066;2023-09-08T10:28:19;8.18;;;2.08;;
31368;SDS011;18004;48.416;10.066;2023-09-08T10:30:46;2.35;;;1.92;;
31368;SDS011;18004;48.416;10.066;2023-09-08T10:33:12;3.75;;;2.28;;
31368;SDS011;18004;48.416;10.066;2023-09-08T10:35:39;7.43;;;2.30;;
31368;SDS011;18004;48.416;10.066;2023-09-08T10:38:26;5.10;;;2.00;;
31368;SDS011;18004;48.416;10.066;2023-09-08T10:40:53;3.95;;;3.00;;
31368;SDS011;18004;48.416;10.066;2023-09-08T10:43:38;3.85;;;2.22;;
31368;SDS011;18004;48.416;10.066;2023-09-08T10:46:10;2.92;;;1.95;;
31368;SDS011;18004;48.416;10.066;2023-09-08T10:48:40;2.97;;;2.50;;
31368;SDS011;18004;48.416;10.066;2023-09-08T10:51:12;2.75;;;2.35;;
31368;SDS011;18004;48.416;10.066;2023-09-08T10:53:39;3.60;;;1.90;;
31368;SDS011;18004;48.416;10.066;2023-09-08T10:56:05;6.40;;;2.42;;
31368;SDS011;18004;48.416;10.066;2023-09-08T10:58:32;6.82;;;2.95;;
31368;SDS011;18004;48.416;10.066;2023-09-08T11:01:01;3.63;;;2.58;;
31368;SDS011;18004;48.416;10.066;2023-09-08T11:06:03;4.45;;;2.45;;
31368;SDS011;18004;48.416;10.066;2023-09-08T11:08:33;2.08;;;1.88;;
31368;SDS011;18004;48.416;10.066;2023-09-08T11:11:01;3.63;;;2.10;;
31368;SDS011;18004;48.416;10.066;2023-09-08T11:13:27;4.05;;;2.63;;
31368;SDS011;18004;48.416;10.066;2023-09-08T11:15:54;3.92;;;3.00;;
31368;SDS011;18004;48.416;10.066;2023-09-08T11:18:27;3.92;;;2.78;;
31368;SDS011;18004;48.416;10.066;2023-09-08T11:20:56;6.47;;;2.90;;
31368;SDS011;18004;48.416;10.066;2023-09-08T11:23:23;4.65;;;2.38;;
31368;SDS011;18004;48.416;10.066;2023-09-08T11:25:50;2.92;;;2.63;;
31368;SDS011;18004;48.416;10.066;2023-09-08T11:28:17;2.50;;;2.30;;
31368;SDS011;18004;48.416;10.066;2023-09-08T11:30:43;2.65;;;2.40;;
31368;SDS011;18004;48.416;10.066;2023-09-08T11:33:15;9.40;;;2.85;;
31368;SDS011;18004;48.416;10.066;2023-09-08T11:35:50;3.25;;;2.40;;
31368;SDS011;18004;48.416;10.066;2023-09-08T11:38:17;3.47;;;2.40;;
31368;SDS011;18004;48.416;10.066;2023-09-08T11:40:49;3.28;;;2.00;;
31368;SDS011;18004;48.416;10.066;2023-09-08T11:43:15;4.25;;;2.78;;
31368;SDS011;18004;48.416;10.066;2023-09-08T11:45:41;6.45;;;2.55;;
31368;SDS011;18004;48.416;10.066;2023-09-08T11:48:08;3.40;;;2.58;;
31368;SDS011;18004;48.416;10.066;2023-09-08T11:50:34;9.30;;;2.70;;
31368;SDS011;18004;48.416;10.066;2023-09-08T11:53:00;3.90;;;2.42;;
31368;SDS011;18004;48.416;10.066;2023-09-08T11:55:27;3.28;;;2.40;;
31368;SDS011;18004;48.416;10.066;2023-09-08T11:57:54;3.17;;;2.42;;
31368;SDS011;18004;48.416;10.066;2023-09-08T12:02:51;3.65;;;2.78;;
31368;SDS011;18004;48.416;10.066;2023-09-08T12:07:47;2.47;;;2.28;;
31368;SDS011;18004;48.416;10.066;2023-09-08T12:10:13;5.10;;;2.35;;
31368;SDS011;18004;48.416;10.066;2023-09-08T12:12:43;3.17;;;2.17;;
31368;SDS011;18004;48.416;10.066;2023-09-08T12:15:10;4.23;;;2.77;;
31368;SDS011;18004;48.416;10.066;2023-09-08T12:17:46;3.47;;;2.47;;
31368;SDS011;18004;48.416;10.066;2023-09-08T12:20:13;9.40;;;2.55;;
31368;SDS011;18004;48.416;10.066;2023-09-08T12:22:47;2.47;;;2.20;;
31368;SDS011;18004;48.416;10.066;2023-09-08T12:25:14;3.97;;;2.40;;
31368;SDS011;18004;48.416;10.066;2023-09-08T12:27:40;3.65;;;2.13;;
31368;SDS011;18004;48.416;10.066;2023-09-08T12:30:07;4.30;;;2.30;;
31368;SDS011;18004;48.416;10.066;2023-09-08T12:32:34;3.90;;;2.28;;
31368;SDS011;18004;48.416;10.066;2023-09-08T12:35:03;3.90;;;2.33;;
31368;SDS011;18004;48.416;10.066;2023-09-08T12:37:30;3.78;;;2.40;;
31368;SDS011;18004;48.416;10.066;2023-09-08T12:39:58;2.78;;;2.40;;
31368;SDS011;18004;48.416;10.066;2023-09-08T12:42:26;4.70;;;2.40;;
31368;SDS011;18004;48.416;10.066;2023-09-08T12:44:54;5.78;;;2.80;;
31368;SDS011;18004;48.416;10.066;2023-09-08T12:47:20;3.95;;;2.88;;
31368;SDS011;18004;48.416;10.066;2023-09-08T12:49:46;3.05;;;2.05;;
31368;SDS011;18004;48.416;10.066;2023-09-08T12:52:12;4.97;;;2.50;;
31368;SDS011;18004;48.416;10.066;2023-09-08T12:54:38;3.85;;;2.28;;
31368;SDS011;18004;48.416;10.066;2023-09-08T12:57:04;5.05;;;2.80;;
31368;SDS011;18004;48.416;10.066;2023-09-08T12:59:30;3.08;;;2.63;;
31368;SDS011;18004;48.416;10.066;2023-09-08T13:01:56;5.35;;;2.78;;
31368;SDS011;18004;48.416;10.066;2023-09-08T13:04:23;3.58;;;2.50;;
31368;SDS011;18004;48.416;10.066;2023-09-08T13:06:49;5.43;;;2.47;;
31368;SDS011;18004;48.416;10.066;2023-09-08T13:09:15;4.97;;;2.47;;
31368;SDS011;18004;48.416;10.066;2023-09-08T13:11:41;4.70;;;2.38;;
31368;SDS011;18004;48.416;10.066;2023-09-08T13:14:08;8.25;;;2.58;;
31368;SDS011;18004;48.416;10.066;2023-09-08T13:16:33;3.47;;;2.28;;
31368;SDS011;18004;48.416;10.066;2023-09-08T13:18:59;2.85;;;2.20;;
31368;SDS011;18004;48.416;10.066;2023-09-08T13:21:25;4.70;;;2.55;;
31368;SDS011;18004;48.416;10.066;2023-09-08T13:23:51;6.57;;;2.47;;
31368;SDS011;18004;48.416;10.066;2023-09-08T13:26:17;2.85;;;2.35;;
31368;SDS011;18004;48.416;10.066;2023-09-08T13:28:42;3.88;;;2.30;;
31368;SDS011;18004;48.416;10.066;2023-09-08T13:31:08;3.45;;;2.13;;
31368;SDS011;18004;48.416;10.066;2023-09-08T13:33:34;2.70;;;2.22;;
31368;SDS011;18004;48.416;10.066;2023-09-08T13:36:00;2.20;;;1.90;;
31368;SDS011;18004;48.416;10.066;2023-09-08T13:38:26;8.68;;;2.35;;
31368;SDS011;18004;48.416;10.066;2023-09-08T13:40:52;2.70;;;1.83;;
31368;SDS011;18004;48.416;10.066;2023-09-08T13:43:20;2.05;;;1.85;;
31368;SDS011;18004;48.416;10.066;2023-09-08T13:45:46;5.97;;;2.15;;
31368;SDS011;18004;48.416;10.066;2023-09-08T13:48:12;4.40;;;2.63;;
31368;SDS011;18004;48.416;10.066;2023-09-08T13:50:38;3.63;;;1.85;;
31368;SDS011;18004;48.416;10.066;2023-09-08T13:53:05;3.13;;;2.10;;
31368;SDS011;18004;48.416;10.066;2023-09-08T13:55:31;2.35;;;1.98;;
31368;SDS011;18004;48.416;10.066;2023-09-08T13:57:57;5.18;;;2.33;;
31368;SDS011;18004;48.416;10.066;2023-09-08T14:00:22;9.45;;;2.60;;
31368;SDS011;18004;48.416;10.066;2023-09-08T14:02:48;2.33;;;2.13;;
31368;SDS011;18004;48.416;10.066;2023-09-08T14:05:14;2.45;;;2.13;;
31368;SDS011;18004;48.416;10.066;2023-09-08T14:07:40;3.65;;;2.17;;
31368;SDS011;18004;48.416;10.066;2023-09-08T14:10:06;7.57;;;2.10;;
31368;SDS011;18004;48.416;10.066;2023-09-08T14:12:33;3.58;;;2.28;;
31368;SDS011;18004;48.416;10.066;2023-09-08T14:14:59;2.28;;;2.08;;
31368;SDS011;18004;48.416;10.066;2023-09-08T14:17:25;2.78;;;2.28;;
31368;SDS011;18004;48.416;10.066;2023-09-08T14:19:50;2.50;;;2.17;;
31368;SDS011;18004;48.416;10.066;2023-09-08T14:22:16;5.45;;;2.25;;
31368;SDS011;18004;48.416;10.066;2023-09-08T14:24:42;4.20;;;2.65;;
31368;SDS011;18004;48.416;10.066;2023-09-08T14:27:08;5.43;;;2.42;;
31368;SDS011;18004;48.416;10.066;2023-09-08T14:29:34;1.80;;;1.67;;
31368;SDS011;18004;48.416;10.066;2023-09-08T14:32:00;2.38;;;2.10;;
31368;SDS011;18004;48.416;10.066;2023-09-08T14:34:25;3.22;;;2.28;;
31368;SDS011;18004;48.416;10.066;2023-09-08T14:36:51;4.53;;;2.65;;
31368;SDS011;18004;48.416;10.066;2023-09-08T14:39:17;4.13;;;1.80;;
31368;SDS011;18004;48.416;10.066;2023-09-08T14:41:47;2.80;;;2.45;;
31368;SDS011;18004;48.416;10.066;2023-09-08T14:44:15;5.85;;;2.13;;
31368;SDS011;18004;48.416;10.066;2023-09-08T14:46:41;2.22;;;1.98;;